Time;durP1;ratioP1;P1;durP2;ratioP2;P2;SDS_P1;SDS_P2;PMS_P1;PMS_P2;Temp;Humidity;BMP_temperature;BMP_pressure;BME280_temperature;BME280_humidity;BME280_pressure;Samples;Min_cycle;Max_cycle;Signal;HPM_P1;HPM_P2
2022/05/18 04:00:10;;;;;;;16.00;12.53;;;11.10;96.30;;;;;;6160490;22;20365;31
2022/05/18 04:02:36;;;;;;;16.47;14.03;;;11.40;96.30;;;;;;4932748;29;20958;-72
2022/05/18 04:05:01;;;;;;;18.67;14.03;;;12.10;96.30;;;;;;4934832;29;20412;-75
2022/05/18 04:07:27;;;;;;;17.93;11.60;;;12.80;96.30;;;;;;4935068;29;20188;-74
2022/05/18 04:09:52;;;;;;;10.93;9.90;;;13.60;96.30;;;;;;4934353;29;20659;-77
2022/05/18 04:12:18;;;;;;;13.13;8.70;;;14.10;96.30;;;;;;4935546;29;20206;-74
2022/05/18 04:14:43;;;;;;;10.20;9.10;;;14.50;96.30;;;;;;4936547;29;20636;-74
2022/05/18 04:17:12;;;;;;;12.40;10.57;;;14.60;96.30;;;;;;4937028;29;20184;-75
2022/05/18 04:19:37;;;;;;;12.37;9.93;;;14.90;96.30;;;;;;4938099;29;20175;-74
2022/05/18 04:22:03;;;;;;;9.80;8.27;;;15.40;96.30;;;;;;4985104;23;21003;-77
2022/05/18 04:24:29;;;;;;;10.13;7.70;;;15.90;96.30;;;;;;4974428;28;20196;-77
2022/05/18 04:26:54;;;;;;;9.17;7.43;;;16.10;96.30;;;;;;4992921;28;20208;-74
2022/05/18 04:29:20;;;;;;;9.40;8.03;;;16.70;96.30;;;;;;4992562;28;20256;-75
2022/05/18 04:31:45;;;;;;;10.20;6.80;;;17.60;96.30;;;;;;4993012;28;20202;-77
2022/05/18 04:34:11;;;;;;;9.50;7.63;;;17.90;96.30;;;;;;4975517;28;20209;-74
2022/05/18 04:36:36;;;;;;;10.80;8.07;;;17.70;96.30;;;;;;4993089;28;20540;-74
2022/05/18 04:39:02;;;;;;;9.60;8.47;;;17.00;96.30;;;;;;4980562;28;20178;-78
2022/05/18 04:41:27;;;;;;;8.80;7.97;;;16.50;96.30;;;;;;4980177;28;20193;-78
2022/05/18 04:43:53;;;;;;;10.47;7.43;;;16.10;96.30;;;;;;4987062;28;20181;-78
2022/05/18 04:46:18;;;;;;;10.23;7.80;;;16.90;96.30;;;;;;4993409;28;20256;-77
2022/05/18 04:48:44;;;;;;;9.80;7.23;;;18.00;96.30;;;;;;4992862;28;20220;-76
2022/05/18 04:51:09;;;;;;;12.87;8.60;;;18.30;96.30;;;;;;4987003;28;20602;-78
2022/05/18 04:53:35;;;;;;;9.93;7.50;;;19.20;96.30;;;;;;4963837;28;20252;-79
2022/05/18 04:56:02;;;;;;;13.30;9.03;;;19.70;96.30;;;;;;4974265;28;20182;-78
2022/05/18 04:58:28;;;;;;;14.27;7.07;;;20.70;96.30;;;;;;4972864;28;20409;-78
2022/05/18 05:01:01;;;;;;;9.97;6.90;;;20.90;96.30;;;;;;4972966;28;20980;-78
2022/05/18 05:03:27;;;;;;;11.97;7.20;;;20.40;96.30;;;;;;4972997;28;20253;-78
2022/05/18 05:05:52;;;;;;;8.00;7.30;;;19.60;96.30;;;;;;4973269;28;20505;-78
2022/05/18 05:08:18;;;;;;;8.73;7.80;;;19.50;96.30;;;;;;4972846;28;20270;-78
2022/05/18 05:10:44;;;;;;;8.30;7.10;;;19.10;96.30;;;;;;4973523;28;20681;-78
2022/05/18 05:13:09;;;;;;;9.30;7.10;;;19.20;96.30;;;;;;4980447;28;20680;-77
2022/05/18 05:15:36;;;;;;;11.13;7.40;;;19.70;96.30;;;;;;4991456;28;20193;-76
2022/05/18 05:18:01;;;;;;;10.50;8.17;;;19.60;96.30;;;;;;4991926;28;20170;-78
2022/05/18 05:20:27;;;;;;;9.83;8.57;;;19.40;96.30;;;;;;4992098;28;20912;-72
2022/05/18 05:22:52;;;;;;;9.57;8.50;;;18.40;96.30;;;;;;4981095;28;20240;-74
2022/05/18 05:25:18;;;;;;;10.37;8.90;;;19.30;96.30;;;;;;4986628;28;20190;-72
2022/05/18 05:27:43;;;;;;;10.37;8.73;;;19.80;96.30;;;;;;4984661;28;20194;-74
2022/05/18 05:30:10;;;;;;;9.23;7.90;;;20.10;96.30;;;;;;4987252;28;20181;-74
2022/05/18 05:32:35;;;;;;;12.03;8.83;;;20.00;96.30;;;;;;4985986;28;20829;-73
2022/05/18 05:35:02;;;;;;;9.37;8.00;;;19.90;96.30;;;;;;4991762;28;20420;-76
2022/05/18 05:37:27;;;;;;;9.60;7.70;;;21.10;96.30;;;;;;4993307;28;20653;-76
2022/05/18 05:39:53;;;;;;;8.60;7.70;;;21.70;96.30;;;;;;4992608;28;20424;-73
2022/05/18 05:42:18;;;;;;;8.20;7.30;;;22.10;96.30;;;;;;4991563;28;20240;-74
2022/05/18 05:44:44;;;;;;;7.47;6.67;;;22.10;96.30;;;;;;4989081;28;20567;-77
2022/05/18 05:47:11;;;;;;;7.93;7.10;;;21.50;96.30;;;;;;4993036;28;20188;-78
2022/05/18 05:49:38;;;;;;;8.03;7.30;;;21.70;96.30;;;;;;4994444;28;20619;-73
2022/05/18 05:52:05;;;;;;;9.80;7.10;;;21.60;96.30;;;;;;4995829;28;20441;-73
2022/05/18 05:54:30;;;;;;;10.20;7.83;;;22.30;96.30;;;;;;4992405;28;20463;-75
2022/05/18 05:56:56;;;;;;;11.47;7.37;;;22.70;95.20;;;;;;4995615;28;20546;-74
2022/05/18 05:59:22;;;;;;;9.90;7.50;;;23.10;96.30;;;;;;4993231;28;20181;-74
2022/05/18 06:01:48;;;;;;;7.97;6.97;;;23.20;94.10;;;;;;4995283;28;20208;-74
2022/05/18 06:04:14;;;;;;;11.30;6.40;;;24.40;90.90;;;;;;4995385;28;20307;-74
2022/05/18 06:06:40;;;;;;;7.07;6.30;;;24.90;89.90;;;;;;4992226;28;20424;-74
2022/05/18 06:09:08;;;;;;;9.50;6.37;;;25.90;86.50;;;;;;4995493;28;20412;-74
2022/05/18 06:11:37;;;;;;;7.10;6.30;;;25.30;87.60;;;;;;4992309;28;20258;-74
2022/05/18 06:14:03;;;;;;;9.77;6.77;;;25.00;89.10;;;;;;4996793;28;20514;-78
2022/05/18 06:16:29;;;;;;;6.53;5.90;;;25.00;89.80;;;;;;4996645;28;20428;-76
2022/05/18 06:18:55;;;;;;;12.70;6.40;;;25.30;88.70;;;;;;4994291;28;20506;-78
2022/05/18 06:21:20;;;;;;;6.97;6.00;;;26.10;86.20;;;;;;4975828;28;20212;-75
2022/05/18 06:23:46;;;;;;;7.40;4.97;;;26.70;84.20;;;;;;4992476;28;20660;-78
2022/05/18 06:26:11;;;;;;;8.83;5.97;;;25.80;84.60;;;;;;4996008;28;20189;-78
2022/05/18 06:28:37;;;;;;;6.00;5.50;;;25.20;87.40;;;;;;4986623;28;20296;-78
2022/05/18 06:31:06;;;;;;;10.10;5.00;;;24.70;88.70;;;;;;4983171;28;20205;-79
2022/05/18 06:33:32;;;;;;;5.63;4.60;;;25.00;87.30;;;;;;4996259;28;20201;-77
2022/05/18 06:35:58;;;;;;;9.47;5.40;;;25.60;84.60;;;;;;4993230;28;20467;-76
2022/05/18 06:38:23;;;;;;;7.13;5.17;;;26.60;82.10;;;;;;4996632;28;20416;-78
2022/05/18 06:43:33;;;;;;;5.93;4.90;;;26.90;81.00;;;;;;4994161;28;20180;-78
2022/05/18 06:46:00;;;;;;;5.07;4.57;;;26.40;82.80;;;;;;4995641;28;20432;-75
2022/05/18 06:48:25;;;;;;;6.73;4.97;;;26.30;80.70;;;;;;4993933;28;20232;-78
2022/05/18 06:50:51;;;;;;;5.00;4.27;;;26.10;81.70;;;;;;4976014;28;20441;-77
2022/05/18 06:53:17;;;;;;;5.73;4.90;;;25.90;84.50;;;;;;4991238;28;20201;-74
2022/05/18 06:55:42;;;;;;;7.30;5.00;;;25.40;85.10;;;;;;4990078;28;20185;-78
2022/05/18 06:58:08;;;;;;;6.70;4.80;;;25.90;83.50;;;;;;4992892;28;20228;-74
2022/05/18 07:00:33;;;;;;;9.50;5.37;;;26.80;80.20;;;;;;4993546;28;20621;-74
2022/05/18 07:02:59;;;;;;;10.13;4.47;;;26.50;82.60;;;;;;4994675;28;20184;-75
2022/05/18 07:05:24;;;;;;;5.37;4.83;;;26.00;83.10;;;;;;4992307;28;20177;-74
2022/05/18 07:07:50;;;;;;;8.13;4.70;;;26.10;82.20;;;;;;4994459;28;20232;-74
2022/05/18 07:10:15;;;;;;;6.67;4.93;;;25.80;82.70;;;;;;4991644;28;20181;-74
2022/05/18 07:12:41;;;;;;;6.13;5.43;;;24.80;85.40;;;;;;4994393;28;20669;-77
2022/05/18 07:15:07;;;;;;;6.97;6.00;;;24.40;87.40;;;;;;4994565;28;20201;-74
2022/05/18 07:17:33;;;;;;;10.63;6.10;;;23.80;90.20;;;;;;4991187;28;20236;-74
2022/05/18 07:19:58;;;;;;;15.83;6.30;;;23.40;89.50;;;;;;4994528;28;20448;-78
2022/05/18 07:22:24;;;;;;;7.90;5.70;;;23.90;88.10;;;;;;4991355;28;20209;-74
2022/05/18 07:24:50;;;;;;;4.97;4.47;;;24.10;89.30;;;;;;4994302;28;20181;-76
2022/05/18 07:27:16;;;;;;;9.23;4.70;;;23.40;88.20;;;;;;4993366;28;20256;-76
2022/05/18 07:29:41;;;;;;;6.30;4.23;;;23.70;86.00;;;;;;4992320;28;20181;-78
2022/05/18 07:32:12;;;;;;;7.03;4.43;;;23.70;84.70;;;;;;4994003;28;20490;-75
2022/05/18 07:34:42;;;;;;;8.10;4.83;;;24.10;86.80;;;;;;4985776;28;20283;-77
2022/05/18 07:37:09;;;;;;;7.73;4.13;;;24.00;85.50;;;;;;4994400;28;20455;-77
2022/05/18 07:39:36;;;;;;;8.53;4.63;;;24.30;84.70;;;;;;4989956;28;20447;-74
2022/05/18 07:42:02;;;;;;;5.57;4.10;;;23.60;87.70;;;;;;4993224;28;20440;-74
2022/05/18 07:44:28;;;;;;;14.63;4.20;;;23.20;86.40;;;;;;4994219;28;20463;-73
2022/05/18 07:46:54;;;;;;;4.37;3.97;;;23.00;87.30;;;;;;4990885;28;20423;-75
2022/05/18 07:49:19;;;;;;;7.00;4.40;;;23.30;86.80;;;;;;4984440;28;20429;-74
2022/05/18 07:51:45;;;;;;;8.93;4.30;;;23.00;86.90;;;;;;4990679;28;20706;-75
2022/05/18 07:54:11;;;;;;;7.13;4.30;;;23.70;85.00;;;;;;4993235;28;20223;-76
2022/05/18 07:56:37;;;;;;;5.57;4.07;;;24.10;83.00;;;;;;4993137;28;20172;-77
2022/05/18 07:59:04;;;;;;;9.97;4.70;;;24.10;83.40;;;;;;4990852;28;20404;-75
2022/05/18 08:01:30;;;;;;;6.33;3.90;;;24.40;82.80;;;;;;4993690;28;20212;-74
2022/05/18 08:03:56;;;;;;;4.80;3.90;;;23.80;84.20;;;;;;4984487;28;20424;-74
2022/05/18 08:06:21;;;;;;;11.47;4.20;;;23.40;83.10;;;;;;4981205;28;20188;-74
2022/05/18 08:08:47;;;;;;;5.80;3.70;;;23.90;84.00;;;;;;4975109;28;20850;-78
2022/05/18 08:16:41;;;;;;;11.47;4.90;;;23.70;83.10;;;;;;4987709;28;20460;-77
2022/05/18 08:19:10;;;;;;;5.13;4.37;;;23.40;85.30;;;;;;4984077;28;20420;-74
2022/05/18 08:21:37;;;;;;;8.60;4.40;;;24.00;82.50;;;;;;4989920;28;20476;-75
2022/05/18 08:24:05;;;;;;;6.90;4.20;;;23.90;82.90;;;;;;4992965;28;20455;-74
2022/05/18 08:26:31;;;;;;;6.83;5.13;;;24.00;81.20;;;;;;4987688;28;20421;-77
2022/05/18 08:28:57;;;;;;;6.10;5.10;;;23.80;84.20;;;;;;4991310;28;20417;-74
2022/05/18 08:31:23;;;;;;;19.07;5.27;;;23.70;85.00;;;;;;4966430;28;20496;-78
2022/05/18 08:33:49;;;;;;;7.90;5.60;;;23.70;85.30;;;;;;4984617;28;20472;-78
2022/05/18 08:36:17;;;;;;;11.60;5.50;;;23.40;86.10;;;;;;4988355;28;20185;-77
2022/05/18 08:38:43;;;;;;;6.97;5.10;;;23.60;86.20;;;;;;4985320;28;20544;-78
2022/05/18 08:41:25;;;;;;;9.43;4.63;;;23.70;85.40;;;;;;4992580;28;20452;-78
2022/05/18 08:43:55;;;;;;;9.43;5.50;;;23.30;86.10;;;;;;4994457;28;20200;-77
2022/05/18 08:46:44;;;;;;;8.20;4.33;;;23.30;83.40;;;;;;4991122;28;20421;-77
2022/05/18 08:50:01;;;;;;;5.33;3.83;;;23.00;84.10;;;;;;4993066;28;20517;-78
2022/05/18 08:52:34;;;;;;;9.60;3.90;;;22.40;86.40;;;;;;4939064;28;20453;-77
2022/05/18 08:55:27;;;;;;;4.87;4.27;;;23.10;85.00;;;;;;4961688;28;20497;-78
2022/05/18 08:57:57;;;;;;;6.07;4.97;;;22.50;86.00;;;;;;4989977;28;20417;-78
2022/05/18 09:00:31;;;;;;;7.50;4.40;;;22.70;87.00;;;;;;4977217;28;20449;-77
2022/05/18 09:03:02;;;;;;;6.63;3.90;;;23.50;85.00;;;;;;4990416;28;20436;-77
2022/05/18 09:05:41;;;;;;;13.33;4.13;;;23.60;84.10;;;;;;4978488;28;20416;-78
2022/05/18 09:08:16;;;;;;;7.60;4.27;;;23.40;83.90;;;;;;4991848;28;20436;-78
2022/05/18 09:10:49;;;;;;;5.70;4.93;;;23.50;83.70;;;;;;4993698;28;20444;-77
2022/05/18 09:13:15;;;;;;;7.53;5.70;;;23.10;86.10;;;;;;4994056;28;21115;-77
2022/05/18 09:16:24;;;;;;;6.50;5.87;;;23.10;85.90;;;;;;4990216;28;20441;-77
2022/05/18 09:19:09;;;;;;;8.33;6.40;;;23.60;86.10;;;;;;4914545;29;20447;-77
2022/05/18 09:21:47;;;;;;;7.60;6.13;;;23.50;89.50;;;;;;4989321;28;20460;-78
2022/05/18 09:24:31;;;;;;;11.67;5.70;;;24.00;84.10;;;;;;4995920;28;20420;-78
2022/05/18 09:27:19;;;;;;;8.47;6.30;;;24.00;85.40;;;;;;4977379;28;20924;-78
2022/05/18 09:30:07;;;;;;;6.10;5.00;;;24.70;84.90;;;;;;4995033;28;20460;-79
2022/05/18 09:32:42;;;;;;;6.27;5.67;;;24.20;83.70;;;;;;4991645;28;20440;-77
2022/05/18 09:35:54;;;;;;;10.20;6.03;;;24.00;84.80;;;;;;4994231;28;20413;-78
2022/05/18 09:38:31;;;;;;;8.00;6.97;;;23.90;84.30;;;;;;4977361;28;20613;-77
2022/05/18 09:40:58;;;;;;;10.70;5.80;;;23.80;85.10;;;;;;4983588;28;20451;-76
2022/05/18 09:43:36;;;;;;;8.17;6.20;;;24.10;86.00;;;;;;4991239;28;20432;-77
2022/05/18 09:46:03;;;;;;;10.63;6.07;;;23.50;85.60;;;;;;4977775;28;20435;-77
2022/05/18 09:48:36;;;;;;;5.30;4.80;;;23.00;87.20;;;;;;4992108;28;20433;-77
2022/05/18 09:51:04;;;;;;;8.67;4.83;;;23.20;85.50;;;;;;4989646;28;21037;-78
2022/05/18 09:53:30;;;;;;;7.80;4.63;;;23.20;87.20;;;;;;4976888;28;20492;-77
2022/05/18 09:55:56;;;;;;;5.60;4.30;;;23.30;87.50;;;;;;4990959;28;20425;-77
2022/05/18 09:58:35;;;;;;;6.17;4.40;;;23.30;85.50;;;;;;4993260;28;20185;-78
2022/05/18 10:09:33;;;;;;;8.70;4.87;;;23.50;83.70;;;;;;4993554;28;20411;-79
2022/05/18 10:12:15;;;;;;;5.97;4.40;;;23.40;87.20;;;;;;4995910;28;20491;-79
2022/05/18 10:14:41;;;;;;;5.93;4.50;;;23.50;86.20;;;;;;4993124;28;20452;-79
2022/05/18 10:17:11;;;;;;;4.40;4.00;;;23.40;86.20;;;;;;4998755;28;20420;-79
2022/05/18 10:19:45;;;;;;;4.40;3.90;;;23.90;83.80;;;;;;4995498;28;20539;-78
2022/05/18 10:22:17;;;;;;;4.50;4.00;;;23.60;86.30;;;;;;5005694;28;20542;-75
2022/05/18 10:24:50;;;;;;;4.50;3.57;;;23.80;84.00;;;;;;4991638;28;20470;-76
2022/05/18 10:27:15;;;;;;;7.20;4.00;;;23.90;84.90;;;;;;4993987;28;20814;-77
2022/05/18 10:30:00;;;;;;;6.67;4.20;;;23.70;86.00;;;;;;4977579;28;20975;-74
2022/05/18 10:32:27;;;;;;;7.50;4.17;;;23.90;85.80;;;;;;4991686;28;20681;-76
2022/05/18 10:34:54;;;;;;;4.93;3.60;;;24.00;85.80;;;;;;4989947;28;20503;-73
2022/05/18 10:37:26;;;;;;;6.27;4.10;;;23.90;84.20;;;;;;4977288;28;20555;-77
2022/05/18 10:39:58;;;;;;;9.60;3.67;;;23.90;85.20;;;;;;4983253;28;20409;-74
2022/05/18 10:42:28;;;;;;;8.37;4.27;;;23.80;84.40;;;;;;4994053;28;20445;-75
2022/05/18 10:45:14;;;;;;;9.40;3.60;;;23.60;82.20;;;;;;4991587;28;20425;-77
2022/05/18 10:47:49;;;;;;;5.73;3.63;;;24.10;85.40;;;;;;4972416;28;21153;-74
2022/05/18 10:50:25;;;;;;;6.90;3.50;;;24.00;81.10;;;;;;4984911;28;20413;-76
2022/05/18 10:52:54;;;;;;;6.60;4.27;;;23.40;85.00;;;;;;4987192;28;20476;-76
2022/05/18 10:55:22;;;;;;;7.90;4.50;;;23.40;84.50;;;;;;4988531;28;20781;-74
2022/05/18 10:58:00;;;;;;;4.13;3.57;;;23.60;84.10;;;;;;4994093;28;20416;-73
2022/05/18 11:00:33;;;;;;;5.97;3.57;;;24.00;84.20;;;;;;4988116;28;20433;-75
2022/05/18 11:03:19;;;;;;;5.33;3.90;;;23.70;84.60;;;;;;4973418;28;20482;-76
2022/05/18 11:05:52;;;;;;;6.43;4.00;;;22.50;85.60;;;;;;4980202;28;20435;-84
2022/05/18 11:08:21;;;;;;;8.03;3.83;;;22.20;86.70;;;;;;4980472;28;20412;-79
2022/05/18 11:10:57;;;;;;;6.43;3.90;;;22.60;85.60;;;;;;4993238;28;20479;-74
2022/05/18 11:13:58;;;;;;;4.30;3.53;;;23.20;83.40;;;;;;4994723;28;20535;-74
2022/05/18 11:16:40;;;;;;;4.60;3.60;;;23.50;84.70;;;;;;4893992;28;20918;-77
2022/05/18 11:19:24;;;;;;;4.40;3.40;;;23.20;83.90;;;;;;4984842;28;20989;-77
2022/05/18 11:22:11;;;;;;;6.90;4.93;;;22.90;85.40;;;;;;4992374;28;20455;-77
2022/05/18 11:25:06;;;;;;;7.57;4.63;;;23.40;87.40;;;;;;4986792;28;21985;-76
2022/05/18 11:27:46;;;;;;;5.73;4.60;;;23.40;86.70;;;;;;4975501;28;20417;-76
2022/05/18 11:30:17;;;;;;;6.13;4.27;;;23.40;84.20;;;;;;4976126;28;20429;-78
2022/05/18 11:33:01;;;;;;;4.73;3.30;;;23.30;84.00;;;;;;4959438;28;20516;-77
2022/05/18 11:36:04;;;;;;;4.60;4.10;;;23.50;85.40;;;;;;4959733;28;20472;-77
2022/05/18 11:38:51;;;;;;;4.23;3.83;;;23.20;84.70;;;;;;4982973;28;20503;-78
2022/05/18 11:41:34;;;;;;;7.03;4.40;;;23.80;87.30;;;;;;4998337;28;20472;-78
2022/05/18 11:44:27;;;;;;;4.50;4.10;;;23.70;86.40;;;;;;4981421;28;20420;-78
2022/05/18 11:47:34;;;;;;;4.07;3.77;;;23.00;85.00;;;;;;4980615;28;20421;-77
2022/05/18 11:50:13;;;;;;;4.60;3.97;;;22.50;87.10;;;;;;4987173;28;20416;-78
2022/05/18 11:52:55;;;;;;;6.67;4.43;;;21.50;89.80;;;;;;4997594;28;20424;-79
2022/05/18 11:55:34;;;;;;;6.30;4.57;;;21.60;92.50;;;;;;4997524;28;20412;-77
2022/05/18 11:58:06;;;;;;;6.10;4.67;;;22.50;89.60;;;;;;4996710;28;20420;-78
2022/05/18 12:00:50;;;;;;;5.93;4.30;;;22.90;87.70;;;;;;4998178;28;20856;-78
2022/05/18 12:03:34;;;;;;;10.10;4.70;;;22.50;86.30;;;;;;4983749;28;20785;-76
2022/05/18 12:06:21;;;;;;;4.00;3.50;;;22.10;88.90;;;;;;4976934;28;20424;-76
2022/05/18 12:09:14;;;;;;;5.17;3.90;;;22.80;88.00;;;;;;4976933;28;20589;-77
2022/05/18 12:12:13;;;;;;;7.63;3.97;;;22.90;88.20;;;;;;4986049;28;20478;-77
2022/05/18 12:15:05;;;;;;;5.43;3.70;;;23.30;86.30;;;;;;4967004;28;20468;-77
2022/05/18 12:17:41;;;;;;;7.93;3.60;;;22.60;86.90;;;;;;4992612;28;20507;-76
2022/05/18 12:20:34;;;;;;;4.73;3.67;;;22.50;89.10;;;;;;4990531;28;20434;-77
2022/05/18 12:23:04;;;;;;;5.13;3.37;;;22.80;88.30;;;;;;4994686;28;20425;-78
2022/05/18 12:25:30;;;;;;;4.93;3.30;;;23.30;86.20;;;;;;4986999;28;20428;-78
2022/05/18 12:27:59;;;;;;;11.10;3.80;;;23.30;86.20;;;;;;4991907;28;20437;-78
2022/05/18 12:30:28;;;;;;;7.80;4.10;;;23.50;86.50;;;;;;4963983;28;20455;-82
2022/05/18 12:32:55;;;;;;;5.33;3.47;;;23.50;86.70;;;;;;4995916;28;20472;-78
2022/05/18 12:35:20;;;;;;;4.30;3.60;;;23.20;85.80;;;;;;4996928;28;20401;-77
2022/05/18 12:37:48;;;;;;;5.97;3.57;;;23.30;85.70;;;;;;4996229;28;20427;-78
2022/05/18 12:40:14;;;;;;;3.63;3.00;;;23.00;86.70;;;;;;4980877;28;20277;-79
2022/05/18 12:42:47;;;;;;;4.20;3.37;;;23.00;87.90;;;;;;4999595;28;20464;-79
2022/05/18 12:45:37;;;;;;;5.13;3.50;;;23.40;86.40;;;;;;4996137;28;20240;-79
2022/05/18 12:48:19;;;;;;;8.10;3.63;;;23.80;84.60;;;;;;4995783;28;20424;-78
2022/05/18 12:50:48;;;;;;;4.07;3.67;;;24.00;86.10;;;;;;4982039;28;20451;-78
2022/05/18 12:53:24;;;;;;;6.67;3.60;;;24.20;85.00;;;;;;4996560;28;20463;-79
2022/05/18 12:56:17;;;;;;;7.60;3.30;;;24.10;83.00;;;;;;4996666;28;20436;-78
2022/05/18 12:58:50;;;;;;;3.60;3.10;;;23.90;84.10;;;;;;4980153;28;20417;-79
2022/05/18 13:01:18;;;;;;;5.17;3.10;;;24.60;81.70;;;;;;4992411;28;20853;-79
2022/05/18 13:03:57;;;;;;;4.77;3.17;;;24.10;82.50;;;;;;4980769;28;20424;-79
2022/05/18 13:06:39;;;;;;;11.23;4.10;;;23.80;83.30;;;;;;4969652;28;20420;-79
2022/05/18 13:09:28;;;;;;;12.90;4.03;;;23.20;85.40;;;;;;4990160;28;20440;-78
2022/05/18 13:12:11;;;;;;;7.23;3.80;;;23.00;87.40;;;;;;4975285;28;20445;-79
2022/05/18 13:14:42;;;;;;;11.80;4.20;;;22.60;88.10;;;;;;4971322;28;20552;-78
2022/05/18 13:17:11;;;;;;;7.70;3.87;;;22.90;87.40;;;;;;4996428;28;20464;-78
2022/05/18 13:19:42;;;;;;;9.17;4.30;;;23.50;87.30;;;;;;4983847;28;20425;-78
2022/05/18 13:22:13;;;;;;;5.73;3.83;;;24.00;86.80;;;;;;4973942;28;20852;-75
2022/05/18 13:24:55;;;;;;;7.60;4.13;;;24.50;82.50;;;;;;4978102;28;20471;-74
2022/05/18 13:27:29;;;;;;;9.90;4.60;;;24.10;86.00;;;;;;4983014;28;20469;-77
2022/05/18 13:29:57;;;;;;;10.40;4.90;;;24.00;84.90;;;;;;4981545;28;20457;-76
2022/05/18 13:32:24;;;;;;;9.63;6.90;;;23.70;86.00;;;;;;4992209;28;20456;-77
2022/05/18 13:35:01;;;;;;;9.37;4.43;;;24.20;84.10;;;;;;4992924;28;20469;-77
2022/05/18 13:37:28;;;;;;;9.30;4.07;;;23.60;86.90;;;;;;4975342;28;20417;-75
2022/05/18 13:39:55;;;;;;;10.43;4.07;;;23.60;85.50;;;;;;4993056;28;20416;-77
2022/05/18 13:42:29;;;;;;;10.40;4.30;;;22.70;87.70;;;;;;4992763;28;20447;-76
2022/05/18 13:45:11;;;;;;;7.50;4.57;;;22.60;88.30;;;;;;4993198;28;20412;-78
2022/05/18 13:47:53;;;;;;;5.70;3.87;;;22.70;89.10;;;;;;4992411;28;20428;-76
2022/05/18 13:50:31;;;;;;;6.67;4.77;;;22.70;89.30;;;;;;4995884;28;20424;-81
2022/05/18 13:53:03;;;;;;;5.70;4.60;;;23.00;88.00;;;;;;4988434;28;20514;-77
2022/05/18 13:55:34;;;;;;;6.23;5.37;;;23.00;87.60;;;;;;4996932;28;21097;-78
2022/05/18 13:58:07;;;;;;;7.03;5.97;;;22.80;87.90;;;;;;4984857;28;20412;-77
2022/05/18 14:00:44;;;;;;;11.47;7.13;;;22.50;88.50;;;;;;4992463;28;20432;-77
2022/05/18 14:03:14;;;;;;;6.83;4.50;;;22.60;89.50;;;;;;4996370;28;20896;-77
2022/05/18 14:05:40;;;;;;;6.27;4.97;;;22.70;88.50;;;;;;4979699;28;20429;-78
2022/05/18 14:08:34;;;;;;;8.87;4.80;;;22.80;88.90;;;;;;4979446;28;20944;-77
2022/05/18 14:11:02;;;;;;;5.90;4.80;;;23.30;87.50;;;;;;4977351;28;20444;-78
2022/05/18 14:13:28;;;;;;;8.47;4.27;;;23.60;88.90;;;;;;4999062;28;20471;-79
2022/05/18 14:15:55;;;;;;;5.17;3.90;;;23.50;86.50;;;;;;4998075;28;20420;-77
2022/05/18 14:18:30;;;;;;;6.53;4.10;;;23.40;88.00;;;;;;4997197;28;20420;-77
2022/05/18 14:20:57;;;;;;;5.03;4.53;;;23.70;86.30;;;;;;4997775;28;20527;-80
2022/05/18 14:23:32;;;;;;;4.33;3.73;;;23.70;85.90;;;;;;4979626;28;20511;-77
2022/05/18 14:26:02;;;;;;;5.17;4.40;;;23.50;86.10;;;;;;4986482;28;20452;-77
2022/05/18 14:28:34;;;;;;;11.20;7.70;;;22.60;87.70;;;;;;4959344;28;20425;-77
2022/05/18 14:31:03;;;;;;;11.57;7.03;;;22.30;88.90;;;;;;4988795;28;20440;-77
2022/05/18 14:33:47;;;;;;;6.77;5.90;;;22.50;88.60;;;;;;4996115;28;20630;-76
2022/05/18 14:36:37;;;;;;;6.83;4.50;;;22.40;89.80;;;;;;4986490;28;20422;-78
2022/05/18 14:39:15;;;;;;;7.27;4.60;;;22.60;89.50;;;;;;4975729;28;20420;-75
2022/05/18 14:41:45;;;;;;;7.13;4.83;;;22.70;87.80;;;;;;4986145;28;20432;-75
2022/05/18 14:44:15;;;;;;;6.13;4.23;;;22.80;87.70;;;;;;4988267;28;20476;-78
2022/05/18 14:46:46;;;;;;;7.50;4.00;;;23.10;89.60;;;;;;4975911;28;20398;-75
2022/05/18 14:49:22;;;;;;;6.10;4.27;;;23.00;88.70;;;;;;4986619;28;20452;-74
2022/05/18 14:51:55;;;;;;;6.27;3.90;;;23.10;88.50;;;;;;4995113;28;20440;-75
2022/05/18 14:54:30;;;;;;;5.43;3.90;;;23.20;88.50;;;;;;4977770;28;20516;-74
2022/05/18 14:57:00;;;;;;;6.17;3.80;;;23.00;87.80;;;;;;4975698;28;20897;-74
2022/05/18 14:59:26;;;;;;;5.60;4.10;;;23.10;87.20;;;;;;4984821;28;20928;-78
2022/05/18 15:02:00;;;;;;;5.40;3.93;;;23.40;86.70;;;;;;4994627;28;20519;-77
2022/05/18 15:04:38;;;;;;;4.20;3.80;;;23.50;87.50;;;;;;4977439;28;20471;-76
2022/05/18 15:07:16;;;;;;;6.40;3.73;;;23.70;85.80;;;;;;4994494;28;20921;-77
2022/05/18 15:09:47;;;;;;;12.40;3.40;;;23.50;87.90;;;;;;4994683;28;20769;-76
2022/05/18 15:12:18;;;;;;;4.33;3.30;;;23.50;86.40;;;;;;4994733;28;20428;-76
2022/05/18 15:14:57;;;;;;;7.70;3.40;;;23.80;86.20;;;;;;4993439;28;20572;-76
2022/05/18 15:17:45;;;;;;;6.90;3.80;;;23.60;85.70;;;;;;4994060;28;20531;-77
2022/05/18 15:20:24;;;;;;;6.53;3.50;;;23.30;87.80;;;;;;4994447;28;20417;-77
2022/05/18 15:22:52;;;;;;;6.47;4.20;;;23.60;86.50;;;;;;4986460;28;20412;-77
2022/05/18 15:25:37;;;;;;;4.03;3.70;;;23.30;88.30;;;;;;4988154;28;20493;-76
2022/05/18 15:28:20;;;;;;;6.90;4.00;;;23.30;87.30;;;;;;4988860;28;20414;-76
2022/05/18 15:30:51;;;;;;;4.37;3.67;;;23.40;87.30;;;;;;4987885;28;20796;-78
2022/05/18 15:33:18;;;;;;;5.47;3.90;;;23.50;86.30;;;;;;4988507;28;20519;-77
2022/05/18 15:35:59;;;;;;;5.43;3.30;;;23.60;86.50;;;;;;4987081;28;20917;-77
2022/05/18 15:38:24;;;;;;;5.83;3.13;;;23.50;87.10;;;;;;4984196;28;20417;-77
2022/05/18 15:40:50;;;;;;;4.83;3.50;;;23.40;86.80;;;;;;4980890;28;20437;-77
2022/05/18 15:43:16;;;;;;;7.10;3.43;;;23.10;87.40;;;;;;4965813;28;20209;-77
2022/05/18 15:45:48;;;;;;;6.63;3.73;;;23.00;86.80;;;;;;4982165;28;20454;-77
2022/05/18 15:48:15;;;;;;;5.87;3.50;;;22.90;87.60;;;;;;4985857;28;20189;-74
2022/05/18 15:50:42;;;;;;;6.33;3.53;;;22.70;88.60;;;;;;4988009;28;20471;-77
2022/05/18 15:53:18;;;;;;;6.47;3.50;;;22.80;87.50;;;;;;4984354;28;20464;-77
2022/05/18 15:55:46;;;;;;;11.70;3.50;;;23.10;87.80;;;;;;4985005;28;20453;-78
2022/05/18 15:58:12;;;;;;;3.77;3.33;;;22.90;89.00;;;;;;4975241;28;20425;-77
2022/05/18 16:00:39;;;;;;;3.77;3.23;;;22.60;89.30;;;;;;4991130;28;20986;-76
2022/05/18 16:03:08;;;;;;;9.60;3.70;;;22.50;88.10;;;;;;4987413;28;20173;-78
2022/05/18 16:05:35;;;;;;;4.70;3.23;;;22.60;88.80;;;;;;4994097;28;20473;-75
2022/05/18 16:08:00;;;;;;;12.60;3.43;;;22.70;89.80;;;;;;4976165;28;20480;-77
2022/05/18 16:10:26;;;;;;;5.00;2.77;;;22.50;88.20;;;;;;4978502;28;20467;-75
2022/05/18 16:12:53;;;;;;;4.77;2.97;;;22.70;88.10;;;;;;4978457;28;20232;-77
2022/05/18 16:15:19;;;;;;;4.40;3.20;;;22.70;88.90;;;;;;4973849;28;20631;-76
2022/05/18 16:17:47;;;;;;;4.20;2.73;;;22.60;88.50;;;;;;4974151;28;20409;-76
2022/05/18 16:20:12;;;;;;;11.93;3.40;;;22.60;87.10;;;;;;4991756;28;20495;-76
2022/05/18 16:22:39;;;;;;;4.50;3.23;;;22.60;87.60;;;;;;4996245;28;20590;-77
2022/05/18 16:25:06;;;;;;;6.67;3.27;;;22.50;87.90;;;;;;4993915;28;20216;-77
2022/05/18 16:27:33;;;;;;;5.63;3.60;;;22.30;88.20;;;;;;4993282;28;20488;-76
2022/05/18 16:29:59;;;;;;;8.40;3.13;;;21.90;90.60;;;;;;4993009;28;20547;-76
2022/05/18 16:32:25;;;;;;;7.47;3.20;;;22.10;89.50;;;;;;4992856;28;20439;-77
2022/05/18 16:34:50;;;;;;;4.90;2.80;;;22.00;89.30;;;;;;4993284;28;20472;-75
2022/05/18 16:37:16;;;;;;;6.17;3.13;;;21.90;89.60;;;;;;4993462;28;20232;-77
2022/05/18 16:39:41;;;;;;;6.03;3.00;;;21.90;89.00;;;;;;4993738;28;20638;-77
2022/05/18 16:42:07;;;;;;;5.20;3.10;;;21.90;88.70;;;;;;4992849;28;20284;-76
2022/05/18 16:44:33;;;;;;;4.47;3.07;;;21.90;89.10;;;;;;4991855;28;20178;-75
2022/05/18 16:47:01;;;;;;;5.03;3.30;;;21.80;89.30;;;;;;4991447;28;20416;-76
2022/05/18 16:49:32;;;;;;;4.73;2.80;;;21.60;89.00;;;;;;4975568;28;20182;-77
2022/05/18 16:51:58;;;;;;;4.57;3.00;;;21.70;89.30;;;;;;4993373;28;20429;-78
2022/05/18 16:54:25;;;;;;;4.83;3.30;;;21.70;88.80;;;;;;4992860;28;20456;-77
2022/05/18 16:56:52;;;;;;;10.70;2.70;;;21.60;89.30;;;;;;4992972;28;20423;-77
2022/05/18 16:59:23;;;;;;;5.80;2.67;;;21.60;89.40;;;;;;4961008;28;20500;-77
2022/05/18 17:25:38;;;;;;;5.60;2.70;;;20.80;91.70;;;;;;5236603;23;20819;-76
2022/05/18 17:28:13;;;;;;;3.97;2.70;;;20.80;92.20;;;;;;5023842;28;20413;-76
2022/05/18 18:11:49;;;;;;;6.53;3.30;;;19.50;96.30;;;;;;5709705;22;20495;-74
2022/05/18 18:14:15;;;;;;;12.40;4.00;;;19.50;96.30;;;;;;5011625;28;20460;-74
2022/05/18 18:16:40;;;;;;;6.47;3.70;;;19.20;96.30;;;;;;5011771;28;20205;-74
2022/05/18 18:19:06;;;;;;;3.83;3.10;;;19.30;96.30;;;;;;5011670;28;20176;-74
2022/05/18 18:21:33;;;;;;;4.80;3.20;;;19.20;96.30;;;;;;5011675;28;20189;-78
2022/05/18 18:24:00;;;;;;;12.73;3.60;;;19.10;96.30;;;;;;5011704;28;20418;-76
2022/05/18 18:26:29;;;;;;;5.90;3.30;;;18.90;96.30;;;;;;5011810;28;20419;-74
2022/05/18 18:29:01;;;;;;;5.50;3.10;;;18.80;96.30;;;;;;5011234;28;20412;-77